ADDS TAF Board (Experimental) INFO Settings
IDs: Format: Expanded Condensed

KORD - Chicago/O'Hare Intl, IL, US

Issued at 1740 UTC 28 Aug 2016
Updated at 1853 UTC 28 Aug 2016
Time1851Z 28/19Z 28/20Z 28/21Z 28/22Z 28/23Z 29/00Z 29/01Z 29/02Z 29/03Z 29/04Z 29/05Z 29/06Z 29/07Z
Type OBS PRVL PRVL PRVL PRVL PRVL PRVL PRVL PRVL PRVL PRVL PRVL PRVL PRVL
VIS 10 >6 >6 >6 >6 >6 >6 >6 >6 >6 5 5 5 5
CIG -- -- -- -- -- -- -- -- -- -- -- -- -- --
Cover FEW SCT SCT SCT SCT SCT SCT SCT SCT SCT SCT SCT SCT SCT
FltCat VFR VFR VFR VFR VFR VFR VFR VFR VFR VFR MVFR MVFR MVFR MVFR
WX -- -- -- -- -- -- -- -- -- -- BR BR BR BR
WDir 90 80 80 80 80 80 80 80 80 80 80 80 80 80
WSpd 6 9 9 9 9 9 9 9 9 9 3 3 3 3
WGst -- -- -- -- -- -- -- -- -- -- -- -- -- --
R04/22
XWnd -5 -6 -6 -6 -6 -6 -6 -6 -6 -6 -2 -2 -2 -2
HWnd 4 7 7 7 7 7 7 7 7 7 2 2 2 2
R09/27
XWnd 0 2 2 2 2 2 2 2 2 2 1 1 1 1
HWnd 6 9 9 9 9 9 9 9 9 9 3 3 3 3
R10/28
XWnd 0 2 2 2 2 2 2 2 2 2 1 1 1 1
HWnd 6 9 9 9 9 9 9 9 9 9 3 3 3 3
R14/32
XWnd 5 8 8 8 8 8 8 8 8 8 3 3 3 3
HWnd 4 5 5 5 5 5 5 5 5 5 2 2 2 2

Raw TAF
KORD 281740Z 2818/2924 08009KT P6SM SCT030 SCT250
  FM290400 08003KT 5SM BR FEW005 SCT250
  FM291400 09007KT P6SM SCT030 SCT250


Raw METAR
KORD 281851Z 09006KT 10SM FEW029 FEW150 FEW250 28/21 A3018 RMK AO2 SLP216 CB DSNT SE-SW T02780206
KORD 281751Z 07007KT 10SM SCT029 SCT150 SCT250 28/20 A3019 RMK AO2 SLP219 T02780200 10283 20222 58001
KORD 281651Z 05007KT 10SM SCT023 SCT150 SCT250 27/21 A3021 RMK AO2 SLP223 T02720206
KORD 281551Z 04006KT 10SM SCT021 BKN150 BKN250 27/22 A3020 RMK AO2 SLP222 T02720217

METAR Board
Radar Display
Forecast Discussion

TAF Board Legend

Potential Impact
Threat None Slight Moderate High
Visibility (sm) ≥5.1 5.1>X≥3 3>X≥1 <1
Ceiling (100 ft) ≥30.1 30.1>X≥10 10>X≥5 <5
Wind Speed (kt) <10 10≤X<20 20≤X<30 ≥30
Wind Gust (kt) <15 15≤X<25 25≤X<35 ≥35
Weather No Wx Reported VCTS,-TS,-FZRA,SN TS,FZRA +TS,+FZRA,+SN